Switzerland, South Carolina
Current Conditions -  °F | °C
As of 2:56 PM on Thursday 30 Oct 2014 (Local Time) from KNBC Reporting Station
Few Clouds Few Clouds  
Wind Chill: 74°   Ceiling: Unl
Heat Index: 74°   Visibility: 7mi
Dew Point: 60°   Wind: 6mph
Humidity: 62%   Direction: 50°NE
Pressure: 29.9"   Gusts: NA
Location:  32.4773°N, 80.9264°W
Report Text: KNBC 301856Z 05005KT 7SM FEW035 23/15 A2990 RMK AO2 SLP122 WND DATA ESTIMATED T02330156 $
Loading
Personal Weather Stations






























Interactive Weather Map
Tropical Storm Tracking
New forecast layout! Learn more

10-Day Weather Forecast

Advertisements
Track Severe Weather on mobile